sensor_id;sensor_type;location;lat;lon;timestamp;pressure;altitude;pressure_sealevel;temperature;humidity
34674;BME280;20879;55.668;37.858;2022-12-31T00:02:05;99211.38;;;1.97;100.00
34674;BME280;20879;55.668;37.858;2022-12-31T00:04:40;99211.44;;;2.02;100.00
34674;BME280;20879;55.668;37.858;2022-12-31T00:07:10;99202.97;;;2.04;100.00
34674;BME280;20879;55.668;37.858;2022-12-31T00:09:39;99207.25;;;2.05;100.00
34674;BME280;20879;55.668;37.858;2022-12-31T00:12:11;99209.78;;;2.05;100.00
34674;BME280;20879;55.668;37.858;2022-12-31T00:14:40;99180.66;;;1.88;100.00
34674;BME280;20879;55.668;37.858;2022-12-31T00:17:14;99208.06;;;2.04;100.00
34674;BME280;20879;55.668;37.858;2022-12-31T00:19:43;99202.13;;;2.04;100.00
34674;BME280;20879;55.668;37.858;2022-12-31T00:22:18;99201.25;;;2.06;100.00
34674;BME280;20879;55.668;37.858;2022-12-31T00:24:52;99203.00;;;2.07;100.00
34674;BME280;20879;55.668;37.858;2022-12-31T00:27:23;99202.16;;;2.08;100.00
34674;BME280;20879;55.668;37.858;2022-12-31T00:29:53;99170.50;;;1.94;100.00
34674;BME280;20879;55.668;37.858;2022-12-31T00:32:30;99171.31;;;1.90;100.00
34674;BME280;20879;55.668;37.858;2022-12-31T00:35:00;99188.41;;;1.96;100.00
34674;BME280;20879;55.668;37.858;2022-12-31T00:37:30;99196.09;;;2.00;100.00
34674;BME280;20879;55.668;37.858;2022-12-31T00:39:59;99191.88;;;2.01;100.00
34674;BME280;20879;55.668;37.858;2022-12-31T00:42:35;99192.75;;;2.04;100.00
34674;BME280;20879;55.668;37.858;2022-12-31T00:45:16;99191.13;;;2.09;100.00
34674;BME280;20879;55.668;37.858;2022-12-31T00:47:45;99193.69;;;2.11;100.00
34674;BME280;20879;55.668;37.858;2022-12-31T00:50:19;99187.69;;;2.10;100.00
34674;BME280;20879;55.668;37.858;2022-12-31T00:52:48;99186.84;;;2.10;100.00
34674;BME280;20879;55.668;37.858;2022-12-31T00:55:18;99186.00;;;2.09;100.00
34674;BME280;20879;55.668;37.858;2022-12-31T00:57:49;99174.88;;;2.06;100.00
34674;BME280;20879;55.668;37.858;2022-12-31T01:00:18;99165.34;;;1.89;100.00
34674;BME280;20879;55.668;37.858;2022-12-31T01:02:47;99184.22;;;2.02;100.00
34674;BME280;20879;55.668;37.858;2022-12-31T01:05:16;99181.63;;;1.99;100.00
34674;BME280;20879;55.668;37.858;2022-12-31T01:07:45;99179.00;;;1.93;100.00
34674;BME280;20879;55.668;37.858;2022-12-31T01:10:15;99179.88;;;1.94;100.00
34674;BME280;20879;55.668;37.858;2022-12-31T01:13:07;99179.88;;;1.95;100.00
34674;BME280;20879;55.668;37.858;2022-12-31T01:15:37;99184.09;;;1.93;100.00
34674;BME280;20879;55.668;37.858;2022-12-31T01:18:07;99184.97;;;1.92;100.00
34674;BME280;20879;55.668;37.858;2022-12-31T01:20:38;99191.75;;;1.93;100.00
34674;BME280;20879;55.668;37.858;2022-12-31T01:23:08;99192.63;;;1.92;100.00
34674;BME280;20879;55.668;37.858;2022-12-31T01:25:39;99188.34;;;1.91;100.00
34674;BME280;20879;55.668;37.858;2022-12-31T01:28:11;99192.59;;;1.89;100.00
34674;BME280;20879;55.668;37.858;2022-12-31T01:30:45;99193.34;;;1.82;100.00
34674;BME280;20879;55.668;37.858;2022-12-31T01:33:15;99196.69;;;1.76;100.00
34674;BME280;20879;55.668;37.858;2022-12-31T01:35:44;99185.59;;;1.74;100.00
34674;BME280;20879;55.668;37.858;2022-12-31T01:38:14;99188.16;;;1.77;100.00
34674;BME280;20879;55.668;37.858;2022-12-31T01:40:43;99182.19;;;1.75;100.00
34674;BME280;20879;55.668;37.858;2022-12-31T01:43:20;99185.56;;;1.72;100.00
34674;BME280;20879;55.668;37.858;2022-12-31T01:45:51;99197.50;;;1.73;100.00
34674;BME280;20879;55.668;37.858;2022-12-31T01:48:24;99185.56;;;1.71;100.00
34674;BME280;20879;55.668;37.858;2022-12-31T01:50:54;99183.75;;;1.62;100.00
34674;BME280;20879;55.668;37.858;2022-12-31T01:53:43;99191.44;;;1.65;100.00
34674;BME280;20879;55.668;37.858;2022-12-31T01:56:12;99186.34;;;1.65;100.00
34674;BME280;20879;55.668;37.858;2022-12-31T01:58:50;99183.88;;;1.70;100.00
34674;BME280;20879;55.668;37.858;2022-12-31T02:01:24;99184.72;;;1.70;100.00
34674;BME280;20879;55.668;37.858;2022-12-31T02:03:54;99182.16;;;1.70;100.00
34674;BME280;20879;55.668;37.858;2022-12-31T02:06:31;99177.91;;;1.72;100.00
34674;BME280;20879;55.668;37.858;2022-12-31T02:09:03;99178.69;;;1.65;100.00
34674;BME280;20879;55.668;37.858;2022-12-31T02:11:33;99183.00;;;1.71;100.00
34674;BME280;20879;55.668;37.858;2022-12-31T02:14:20;99176.16;;;1.68;100.00
34674;BME280;20879;55.668;37.858;2022-12-31T02:17:03;99166.81;;;1.67;99.86
34674;BME280;20879;55.668;37.858;2022-12-31T02:22:43;99188.06;;;1.68;99.84
34674;BME280;20879;55.668;37.858;2022-12-31T02:25:30;99170.78;;;1.45;99.45
34674;BME280;20879;55.668;37.858;2022-12-31T02:28:18;99176.53;;;1.30;99.82
34674;BME280;20879;55.668;37.858;2022-12-31T02:30:57;99187.34;;;1.14;99.95
34674;BME280;20879;55.668;37.858;2022-12-31T02:33:49;99192.53;;;1.20;100.00
34674;BME280;20879;55.668;37.858;2022-12-31T02:36:28;99188.41;;;1.28;100.00
34674;BME280;20879;55.668;37.858;2022-12-31T02:39:05;99183.44;;;1.37;100.00
34674;BME280;20879;55.668;37.858;2022-12-31T02:41:36;99185.22;;;1.45;100.00
34674;BME280;20879;55.668;37.858;2022-12-31T02:44:28;99186.94;;;1.44;100.00
34674;BME280;20879;55.668;37.858;2022-12-31T02:47:08;99185.06;;;1.32;100.00
34674;BME280;20879;55.668;37.858;2022-12-31T02:49:53;99191.72;;;1.21;100.00
34674;BME280;20879;55.668;37.858;2022-12-31T02:52:39;99190.81;;;1.16;100.00
34674;BME280;20879;55.668;37.858;2022-12-31T02:55:20;99186.44;;;1.09;100.00
34674;BME280;20879;55.668;37.858;2022-12-31T02:57:57;99188.00;;;0.99;100.00
34674;BME280;20879;55.668;37.858;2022-12-31T03:00:43;99188.59;;;0.81;100.00
34674;BME280;20879;55.668;37.858;2022-12-31T03:03:29;99191.91;;;0.77;100.00
34674;BME280;20879;55.668;37.858;2022-12-31T03:06:01;99186.88;;;0.81;100.00
34674;BME280;20879;55.668;37.858;2022-12-31T03:08:31;99168.19;;;0.81;100.00
34674;BME280;20879;55.668;37.858;2022-12-31T03:11:20;99193.28;;;1.13;100.00
34674;BME280;20879;55.668;37.858;2022-12-31T03:14:02;99187.69;;;1.37;100.00
34674;BME280;20879;55.668;37.858;2022-12-31T03:16:46;99196.09;;;1.30;100.00
34674;BME280;20879;55.668;37.858;2022-12-31T03:19:17;99195.31;;;1.35;100.00
34674;BME280;20879;55.668;37.858;2022-12-31T03:21:59;99190.25;;;1.38;100.00
34674;BME280;20879;55.668;37.858;2022-12-31T03:24:47;99189.34;;;1.33;100.00
34674;BME280;20879;55.668;37.858;2022-12-31T03:27:30;99196.03;;;1.25;100.00
34674;BME280;20879;55.668;37.858;2022-12-31T03:29:59;99193.47;;;1.25;100.00
34674;BME280;20879;55.668;37.858;2022-12-31T03:32:29;99186.63;;;1.22;100.00
34674;BME280;20879;55.668;37.858;2022-12-31T03:35:06;99190.16;;;1.31;100.00
34674;BME280;20879;55.668;37.858;2022-12-31T03:37:36;99196.09;;;1.30;100.00
34674;BME280;20879;55.668;37.858;2022-12-31T03:40:08;99180.69;;;1.24;100.00
34674;BME280;20879;55.668;37.858;2022-12-31T03:42:39;99191.84;;;1.30;100.00
34674;BME280;20879;55.668;37.858;2022-12-31T03:45:14;99196.09;;;1.30;100.00
34674;BME280;20879;55.668;37.858;2022-12-31T03:47:43;99195.25;;;1.29;100.00
34674;BME280;20879;55.668;37.858;2022-12-31T03:50:16;99182.50;;;1.31;100.00
34674;BME280;20879;55.668;37.858;2022-12-31T03:52:46;99179.94;;;1.29;100.00
34674;BME280;20879;55.668;37.858;2022-12-31T03:55:15;99200.53;;;1.45;100.00
34674;BME280;20879;55.668;37.858;2022-12-31T03:57:45;99198.88;;;1.47;99.79
34674;BME280;20879;55.668;37.858;2022-12-31T04:00:16;99200.53;;;1.45;99.74
34674;BME280;20879;55.668;37.858;2022-12-31T04:02:46;99195.38;;;1.40;99.85
34674;BME280;20879;55.668;37.858;2022-12-31T04:05:19;99201.28;;;1.37;99.81
34674;BME280;20879;55.668;37.858;2022-12-31T04:07:49;99200.41;;;1.35;99.83
34674;BME280;20879;55.668;37.858;2022-12-31T04:10:19;99210.66;;;1.37;99.56
34674;BME280;20879;55.668;37.858;2022-12-31T04:12:48;99212.31;;;1.33;99.44
34674;BME280;20879;55.668;37.858;2022-12-31T04:15:19;99198.56;;;1.25;99.69
34674;BME280;20879;55.668;37.858;2022-12-31T04:17:49;99212.31;;;1.35;99.01
34674;BME280;20879;55.668;37.858;2022-12-31T04:20:20;99216.44;;;1.27;98.44
34674;BME280;20879;55.668;37.858;2022-12-31T04:23:01;99215.50;;;1.20;98.78
34674;BME280;20879;55.668;37.858;2022-12-31T04:25:30;99209.38;;;1.07;98.30
34674;BME280;20879;55.668;37.858;2022-12-31T04:28:00;99224.56;;;1.01;98.74
34674;BME280;20879;55.668;37.858;2022-12-31T04:30:41;99225.28;;;0.94;98.75
34674;BME280;20879;55.668;37.858;2022-12-31T04:33:10;99230.22;;;0.81;99.19
34674;BME280;20879;55.668;37.858;2022-12-31T04:35:42;99235.19;;;0.74;100.00
34674;BME280;20879;55.668;37.858;2022-12-31T04:38:11;99238.81;;;0.86;100.00
34674;BME280;20879;55.668;37.858;2022-12-31T04:40:40;99220.81;;;0.79;99.79
34674;BME280;20879;55.668;37.858;2022-12-31T04:43:27;99238.88;;;0.91;100.00
34674;BME280;20879;55.668;37.858;2022-12-31T04:45:57;99241.28;;;0.83;100.00
34674;BME280;20879;55.668;37.858;2022-12-31T04:48:31;99238.59;;;0.74;100.00
34674;BME280;20879;55.668;37.858;2022-12-31T04:51:03;99241.91;;;0.70;100.00
34674;BME280;20879;55.668;37.858;2022-12-31T04:53:49;99249.50;;;0.67;100.00
34674;BME280;20879;55.668;37.858;2022-12-31T04:56:18;99243.59;;;0.69;100.00
34674;BME280;20879;55.668;37.858;2022-12-31T04:58:48;99244.47;;;0.72;100.00
34674;BME280;20879;55.668;37.858;2022-12-31T05:01:17;99254.00;;;0.82;100.00
34674;BME280;20879;55.668;37.858;2022-12-31T05:03:46;99254.81;;;0.79;100.00
34674;BME280;20879;55.668;37.858;2022-12-31T05:06:20;99257.22;;;0.72;100.00
34674;BME280;20879;55.668;37.858;2022-12-31T05:08:57;99257.16;;;0.67;100.00
34674;BME280;20879;55.668;37.858;2022-12-31T05:11:26;99275.84;;;0.66;100.00
34674;BME280;20879;55.668;37.858;2022-12-31T05:14:02;99270.75;;;0.66;100.00
34674;BME280;20879;55.668;37.858;2022-12-31T05:16:32;99285.22;;;0.70;100.00
34674;BME280;20879;55.668;37.858;2022-12-31T05:19:01;99287.81;;;0.72;100.00
34674;BME280;20879;55.668;37.858;2022-12-31T05:21:39;99293.72;;;0.69;100.00
34674;BME280;20879;55.668;37.858;2022-12-31T05:24:08;99289.38;;;0.63;100.00
34674;BME280;20879;55.668;37.858;2022-12-31T05:26:38;99297.03;;;0.63;100.00
34674;BME280;20879;55.668;37.858;2022-12-31T05:29:07;99304.63;;;0.62;100.00
34674;BME280;20879;55.668;37.858;2022-12-31T05:31:36;99306.41;;;0.66;100.00
34674;BME280;20879;55.668;37.858;2022-12-31T05:34:05;99321.78;;;0.71;100.00
34674;BME280;20879;55.668;37.858;2022-12-31T05:36:42;99297.78;;;0.59;100.00
34674;BME280;20879;55.668;37.858;2022-12-31T05:39:11;99326.94;;;0.74;100.00
34674;BME280;20879;55.668;37.858;2022-12-31T05:41:40;99332.03;;;0.74;100.00
34674;BME280;20879;55.668;37.858;2022-12-31T05:44:15;99337.94;;;0.73;100.00
34674;BME280;20879;55.668;37.858;2022-12-31T05:46:45;99330.34;;;0.76;100.00
34674;BME280;20879;55.668;37.858;2022-12-31T05:49:15;99347.38;;;0.77;100.00
34674;BME280;20879;55.668;37.858;2022-12-31T05:51:47;99355.75;;;0.71;100.00
34674;BME280;20879;55.668;37.858;2022-12-31T05:54:16;99311.97;;;0.45;100.00
34674;BME280;20879;55.668;37.858;2022-12-31T05:56:45;99354.91;;;0.71;100.00
34674;BME280;20879;55.668;37.858;2022-12-31T05:59:14;99365.09;;;0.71;100.00
34674;BME280;20879;55.668;37.858;2022-12-31T06:01:43;99365.06;;;0.67;100.00
34674;BME280;20879;55.668;37.858;2022-12-31T06:04:33;99359.06;;;0.65;100.00
34674;BME280;20879;55.668;37.858;2022-12-31T06:07:04;99373.53;;;0.68;100.00
34674;BME280;20879;55.668;37.858;2022-12-31T06:09:39;99371.88;;;0.70;100.00
34674;BME280;20879;55.668;37.858;2022-12-31T06:12:09;99375.97;;;0.60;100.00
34674;BME280;20879;55.668;37.858;2022-12-31T06:14:38;99387.78;;;0.58;100.00
34674;BME280;20879;55.668;37.858;2022-12-31T06:17:12;99375.81;;;0.54;100.00
34674;BME280;20879;55.668;37.858;2022-12-31T06:19:41;99381.84;;;0.58;100.00
34674;BME280;20879;55.668;37.858;2022-12-31T06:22:12;99405.94;;;0.74;100.00
34674;BME280;20879;55.668;37.858;2022-12-31T06:24:47;99411.78;;;0.68;100.00
34674;BME280;20879;55.668;37.858;2022-12-31T06:27:16;99420.28;;;0.70;100.00
34674;BME280;20879;55.668;37.858;2022-12-31T06:29:51;99422.94;;;0.75;100.00
34674;BME280;20879;55.668;37.858;2022-12-31T06:32:26;99436.53;;;0.74;100.00
34674;BME280;20879;55.668;37.858;2022-12-31T06:34:55;99439.06;;;0.74;100.00
34674;BME280;20879;55.668;37.858;2022-12-31T06:37:27;99439.94;;;0.76;100.00
34674;BME280;20879;55.668;37.858;2022-12-31T06:39:56;99451.13;;;0.82;100.00
34674;BME280;20879;55.668;37.858;2022-12-31T06:42:27;99445.16;;;0.82;100.00
34674;BME280;20879;55.668;37.858;2022-12-31T06:44:56;99454.41;;;0.77;100.00
34674;BME280;20879;55.668;37.858;2022-12-31T06:47:26;99451.06;;;0.78;100.00
34674;BME280;20879;55.668;37.858;2022-12-31T06:50:00;99448.78;;;0.93;100.00
34674;BME280;20879;55.668;37.858;2022-12-31T06:52:32;99449.59;;;0.92;100.00
34674;BME280;20879;55.668;37.858;2022-12-31T06:55:02;99471.78;;;0.96;100.00
34674;BME280;20879;55.668;37.858;2022-12-31T06:57:32;99444.16;;;0.74;100.00
34674;BME280;20879;55.668;37.858;2022-12-31T07:00:02;99461.34;;;0.82;100.00
34674;BME280;20879;55.668;37.858;2022-12-31T07:02:56;99463.09;;;0.85;100.00
34674;BME280;20879;55.668;37.858;2022-12-31T07:05:36;99473.34;;;0.88;100.00
34674;BME280;20879;55.668;37.858;2022-12-31T07:08:19;99461.47;;;0.90;100.00
34674;BME280;20879;55.668;37.858;2022-12-31T07:10:52;99460.69;;;0.93;100.00
34674;BME280;20879;55.668;37.858;2022-12-31T07:13:46;99488.88;;;1.00;100.00
34674;BME280;20879;55.668;37.858;2022-12-31T07:16:28;99491.41;;;0.99;100.00
34674;BME280;20879;55.668;37.858;2022-12-31T07:19:16;99469.78;;;0.80;100.00
34674;BME280;20879;55.668;37.858;2022-12-31T07:21:56;99465.78;;;0.93;100.00
34674;BME280;20879;55.668;37.858;2022-12-31T07:24:29;99502.34;;;0.95;100.00
34674;BME280;20879;55.668;37.858;2022-12-31T07:27:24;99505.84;;;0.98;100.00
34674;BME280;20879;55.668;37.858;2022-12-31T07:30:02;99498.38;;;1.08;100.00
34674;BME280;20879;55.668;37.858;2022-12-31T07:32:43;99515.38;;;1.07;100.00
34674;BME280;20879;55.668;37.858;2022-12-31T07:35:23;99510.25;;;1.06;100.00
34674;BME280;20879;55.668;37.858;2022-12-31T07:38:07;99495.69;;;1.00;100.00
34674;BME280;20879;55.668;37.858;2022-12-31T07:41:01;99517.03;;;1.07;100.00
34674;BME280;20879;55.668;37.858;2022-12-31T07:43:46;99509.34;;;1.05;100.00
34674;BME280;20879;55.668;37.858;2022-12-31T07:46:27;99522.09;;;1.05;100.00
34674;BME280;20879;55.668;37.858;2022-12-31T07:48:59;99529.78;;;1.07;100.00
34674;BME280;20879;55.668;37.858;2022-12-31T07:51:29;99521.97;;;0.97;100.00
34674;BME280;20879;55.668;37.858;2022-12-31T07:54:05;99526.53;;;1.14;100.00
34674;BME280;20879;55.668;37.858;2022-12-31T07:56:43;99519.81;;;1.17;100.00
34674;BME280;20879;55.668;37.858;2022-12-31T07:59:33;99536.94;;;1.23;100.00
34674;BME280;20879;55.668;37.858;2022-12-31T08:02:16;99545.34;;;1.19;100.00
34674;BME280;20879;55.668;37.858;2022-12-31T08:04:55;99502.22;;;0.87;100.00
34674;BME280;20879;55.668;37.858;2022-12-31T08:07:36;99556.31;;;1.15;100.00
34674;BME280;20879;55.668;37.858;2022-12-31T08:10:14;99543.44;;;1.09;100.00
34674;BME280;20879;55.668;37.858;2022-12-31T08:12:49;99548.84;;;1.24;100.00
34674;BME280;20879;55.668;37.858;2022-12-31T08:15:24;99557.47;;;1.31;100.00
34674;BME280;20879;55.668;37.858;2022-12-31T08:18:02;99560.16;;;1.37;100.00
34674;BME280;20879;55.668;37.858;2022-12-31T08:20:33;99531.28;;;1.39;100.00
34674;BME280;20879;55.668;37.858;2022-12-31T08:23:19;99555.53;;;1.63;100.00
34674;BME280;20879;55.668;37.858;2022-12-31T08:26:02;99552.97;;;1.63;100.00
34674;BME280;20879;55.668;37.858;2022-12-31T08:28:54;99566.88;;;1.79;100.00
34674;BME280;20879;55.668;37.858;2022-12-31T08:31:33;99565.28;;;1.86;100.00
34674;BME280;20879;55.668;37.858;2022-12-31T08:34:13;99551.06;;;2.00;100.00
34674;BME280;20879;55.668;37.858;2022-12-31T08:36:54;99556.81;;;1.87;100.00
34674;BME280;20879;55.668;37.858;2022-12-31T08:39:35;99565.50;;;1.98;100.00
34674;BME280;20879;55.668;37.858;2022-12-31T08:45:08;99563.53;;;1.82;100.00
34674;BME280;20879;55.668;37.858;2022-12-31T08:47:44;99569.53;;;1.84;100.00
34674;BME280;20879;55.668;37.858;2022-12-31T08:50:24;99551.53;;;1.78;100.00
34674;BME280;20879;55.668;37.858;2022-12-31T08:52:54;99572.31;;;1.98;100.00
34674;BME280;20879;55.668;37.858;2022-12-31T08:55:25;99548.31;;;1.88;99.87
34674;BME280;20879;55.668;37.858;2022-12-31T08:58:03;99577.56;;;2.05;99.21
34674;BME280;20879;55.668;37.858;2022-12-31T09:00:39;99576.78;;;2.09;99.05
34674;BME280;20879;55.668;37.858;2022-12-31T09:03:19;99586.75;;;1.96;98.74
34674;BME280;20879;55.668;37.858;2022-12-31T09:06:00;99589.22;;;1.91;98.73
34674;BME280;20879;55.668;37.858;2022-12-31T09:08:43;99569.22;;;1.68;99.51
34674;BME280;20879;55.668;37.858;2022-12-31T09:11:18;99575.41;;;1.81;99.15
34674;BME280;20879;55.668;37.858;2022-12-31T09:14:02;99591.69;;;1.86;99.10
34674;BME280;20879;55.668;37.858;2022-12-31T09:16:59;99553.97;;;1.70;99.80
34674;BME280;20879;55.668;37.858;2022-12-31T09:19:30;99573.81;;;1.85;99.60
34674;BME280;20879;55.668;37.858;2022-12-31T09:22:00;99590.16;;;1.96;99.25
34674;BME280;20879;55.668;37.858;2022-12-31T09:24:30;99593.59;;;1.97;99.11
34674;BME280;20879;55.668;37.858;2022-12-31T09:27:05;99597.81;;;1.96;99.75
34674;BME280;20879;55.668;37.858;2022-12-31T09:29:48;99600.53;;;2.05;99.13
34674;BME280;20879;55.668;37.858;2022-12-31T09:32:29;99606.56;;;2.10;99.18
34674;BME280;20879;55.668;37.858;2022-12-31T09:35:06;99593.13;;;2.21;99.40
34674;BME280;20879;55.668;37.858;2022-12-31T09:37:46;99599.13;;;2.23;98.91
34674;BME280;20879;55.668;37.858;2022-12-31T09:40:37;99602.66;;;2.31;98.28
34674;BME280;20879;55.668;37.858;2022-12-31T09:43:31;99606.72;;;2.17;97.65
34674;BME280;20879;55.668;37.858;2022-12-31T09:46:19;99613.41;;;2.12;97.84
34674;BME280;20879;55.668;37.858;2022-12-31T09:52:21;99598.22;;;1.70;98.45
34674;BME280;20879;55.668;37.858;2022-12-31T09:55:02;99641.19;;;1.95;98.83
34674;BME280;20879;55.668;37.858;2022-12-31T09:57:38;99630.19;;;1.97;99.45
34674;BME280;20879;55.668;37.858;2022-12-31T10:00:11;99622.59;;;2.02;99.09
34674;BME280;20879;55.668;37.858;2022-12-31T10:03:01;99627.91;;;2.11;99.41
34674;BME280;20879;55.668;37.858;2022-12-31T10:05:52;99629.72;;;2.18;99.39
34674;BME280;20879;55.668;37.858;2022-12-31T10:08:35;99609.84;;;2.03;99.26
34674;BME280;20879;55.668;37.858;2022-12-31T10:11:15;99633.06;;;2.14;98.40
34674;BME280;20879;55.668;37.858;2022-12-31T10:13:54;99634.63;;;2.07;98.78
34674;BME280;20879;55.668;37.858;2022-12-31T10:16:51;99650.78;;;2.06;99.41
34674;BME280;20879;55.668;37.858;2022-12-31T10:20:07;99649.97;;;2.09;99.16
34674;BME280;20879;55.668;37.858;2022-12-31T10:23:07;99661.75;;;2.01;98.52
34674;BME280;20879;55.668;37.858;2022-12-31T10:25:59;99672.72;;;1.95;99.42
34674;BME280;20879;55.668;37.858;2022-12-31T10:28:48;99673.50;;;1.91;99.14
34674;BME280;20879;55.668;37.858;2022-12-31T10:31:36;99689.56;;;1.87;99.72
34674;BME280;20879;55.668;37.858;2022-12-31T10:34:15;99669.16;;;1.87;100.00
34674;BME280;20879;55.668;37.858;2022-12-31T10:36:54;99681.44;;;1.64;100.00
34674;BME280;20879;55.668;37.858;2022-12-31T10:39:41;99670.53;;;1.71;100.00
34674;BME280;20879;55.668;37.858;2022-12-31T10:42:49;99685.25;;;1.84;100.00
34674;BME280;20879;55.668;37.858;2022-12-31T11:00:48;99687.84;;;1.86;100.00
34674;BME280;20879;55.668;37.858;2022-12-31T11:03:44;99606.91;;;1.37;100.00
34674;BME280;20879;55.668;37.858;2022-12-31T11:09:49;99684.56;;;1.93;100.00
34674;BME280;20879;55.668;37.858;2022-12-31T11:12:59;99681.28;;;1.99;100.00
34674;BME280;20879;55.668;37.858;2022-12-31T11:15:47;99695.78;;;2.00;100.00
34674;BME280;20879;55.668;37.858;2022-12-31T11:18:31;99703.53;;;2.04;100.00
34674;BME280;20879;55.668;37.858;2022-12-31T11:21:11;99669.78;;;1.75;100.00
34674;BME280;20879;55.668;37.858;2022-12-31T11:24:04;99724.53;;;1.89;100.00
34674;BME280;20879;55.668;37.858;2022-12-31T11:26:47;99701.41;;;1.82;100.00
34674;BME280;20879;55.668;37.858;2022-12-31T11:29:31;99744.22;;;1.95;100.00
34674;BME280;20879;55.668;37.858;2022-12-31T11:32:25;99759.34;;;1.86;100.00
34674;BME280;20879;55.668;37.858;2022-12-31T11:35:19;99731.53;;;1.57;100.00
34674;BME280;20879;55.668;37.858;2022-12-31T11:37:57;99754.91;;;1.77;100.00
34674;BME280;20879;55.668;37.858;2022-12-31T11:40:40;99750.63;;;1.74;100.00
34674;BME280;20879;55.668;37.858;2022-12-31T11:43:23;99750.69;;;1.78;100.00
34674;BME280;20879;55.668;37.858;2022-12-31T11:46:28;99745.28;;;1.65;100.00
34674;BME280;20879;55.668;37.858;2022-12-31T11:49:05;99771.16;;;1.81;100.00
34674;BME280;20879;55.668;37.858;2022-12-31T11:51:51;99763.97;;;1.63;100.00
34674;BME280;20879;55.668;37.858;2022-12-31T11:54:52;99778.53;;;1.68;100.00
34674;BME280;20879;55.668;37.858;2022-12-31T11:57:33;99784.50;;;1.67;100.00
34674;BME280;20879;55.668;37.858;2022-12-31T12:00:11;99796.25;;;1.61;100.00
34674;BME280;20879;55.668;37.858;2022-12-31T12:02:46;99778.16;;;1.50;100.00
34674;BME280;20879;55.668;37.858;2022-12-31T12:05:19;99777.38;;;1.52;100.00
34674;BME280;20879;55.668;37.858;2022-12-31T12:07:50;99798.72;;;1.57;100.00
34674;BME280;20879;55.668;37.858;2022-12-31T12:10:25;99784.91;;;1.48;100.00
34674;BME280;20879;55.668;37.858;2022-12-31T12:13:11;99796.19;;;1.57;100.00
34674;BME280;20879;55.668;37.858;2022-12-31T12:15:44;99787.31;;;1.42;100.00
34674;BME280;20879;55.668;37.858;2022-12-31T12:18:35;99795.28;;;1.54;100.00
34674;BME280;20879;55.668;37.858;2022-12-31T12:21:11;99797.88;;;1.57;100.00
34674;BME280;20879;55.668;37.858;2022-12-31T12:23:53;99801.31;;;1.59;100.00
34674;BME280;20879;55.668;37.858;2022-12-31T12:26:33;99808.53;;;1.79;100.00
34674;BME280;20879;55.668;37.858;2022-12-31T12:29:11;99815.16;;;1.69;100.00
34674;BME280;20879;55.668;37.858;2022-12-31T12:31:56;99808.91;;;1.56;100.00
34674;BME280;20879;55.668;37.858;2022-12-31T12:34:29;99818.44;;;1.63;100.00
34674;BME280;20879;55.668;37.858;2022-12-31T12:37:06;99818.31;;;1.57;100.00
34674;BME280;20879;55.668;37.858;2022-12-31T12:39:36;99814.78;;;1.52;100.00
34674;BME280;20879;55.668;37.858;2022-12-31T12:42:09;99819.16;;;1.57;100.00
34674;BME280;20879;55.668;37.858;2022-12-31T12:44:42;99826.03;;;1.60;100.00
34674;BME280;20879;55.668;37.858;2022-12-31T12:54:40;99839.63;;;1.24;100.00
34674;BME280;20879;55.668;37.858;2022-12-31T12:57:19;99810.28;;;1.07;100.00
34674;BME280;20879;55.668;37.858;2022-12-31T13:00:02;99845.47;;;1.20;100.00
34674;BME280;20879;55.668;37.858;2022-12-31T13:05:40;99833.25;;;1.42;100.00
34674;BME280;20879;55.668;37.858;2022-12-31T13:08:25;99828.25;;;1.46;100.00
34674;BME280;20879;55.668;37.858;2022-12-31T13:11:22;99837.63;;;1.47;100.00
34674;BME280;20879;55.668;37.858;2022-12-31T13:14:01;99835.16;;;1.50;100.00
34674;BME280;20879;55.668;37.858;2022-12-31T13:16:41;99830.94;;;1.51;100.00
34674;BME280;20879;55.668;37.858;2022-12-31T13:19:17;99822.25;;;1.44;100.00
34674;BME280;20879;55.668;37.858;2022-12-31T13:21:52;99826.34;;;1.37;100.00
34674;BME280;20879;55.668;37.858;2022-12-31T13:24:33;99835.03;;;1.46;100.00
34674;BME280;20879;55.668;37.858;2022-12-31T13:27:12;99847.06;;;1.50;100.00
34674;BME280;20879;55.668;37.858;2022-12-31T13:29:48;99848.84;;;1.54;100.00
34674;BME280;20879;55.668;37.858;2022-12-31T13:32:20;99833.28;;;1.43;100.00
34674;BME280;20879;55.668;37.858;2022-12-31T13:34:57;99857.41;;;1.56;100.00
34674;BME280;20879;55.668;37.858;2022-12-31T13:37:35;99849.00;;;1.60;100.00
34674;BME280;20879;55.668;37.858;2022-12-31T13:40:18;99842.97;;;1.58;100.00
34674;BME280;20879;55.668;37.858;2022-12-31T13:42:54;99840.41;;;1.58;100.00
34674;BME280;20879;55.668;37.858;2022-12-31T13:45:27;99832.97;;;1.66;100.00
34674;BME280;20879;55.668;37.858;2022-12-31T13:48:03;99847.44;;;1.67;100.00
34674;BME280;20879;55.668;37.858;2022-12-31T13:50:43;99837.34;;;1.71;100.00
34674;BME280;20879;55.668;37.858;2022-12-31T13:53:21;99843.34;;;1.73;100.00
34674;BME280;20879;55.668;37.858;2022-12-31T13:55:55;99840.78;;;1.73;100.00
34674;BME280;20879;55.668;37.858;2022-12-31T13:58:33;99847.63;;;1.74;100.00
34674;BME280;20879;55.668;37.858;2022-12-31T14:01:14;99829.53;;;1.65;100.00
34674;BME280;20879;55.668;37.858;2022-12-31T14:03:50;99857.03;;;1.77;100.00
34674;BME280;20879;55.668;37.858;2022-12-31T14:06:28;99851.88;;;1.75;100.00
34674;BME280;20879;55.668;37.858;2022-12-31T14:09:05;99842.34;;;1.68;100.00
34674;BME280;20879;55.668;37.858;2022-12-31T14:11:49;99857.94;;;1.79;100.00
34674;BME280;20879;55.668;37.858;2022-12-31T14:14:29;99857.84;;;1.74;100.00
34674;BME280;20879;55.668;37.858;2022-12-31T14:17:05;99857.00;;;1.75;100.00
34674;BME280;20879;55.668;37.858;2022-12-31T14:19:50;99827.66;;;1.58;99.54
34674;BME280;20879;55.668;37.858;2022-12-31T14:22:32;99840.41;;;1.58;99.64
34674;BME280;20879;55.668;37.858;2022-12-31T14:25:15;99861.22;;;1.73;99.78